Time;durP1;ratioP1;P1;durP2;ratioP2;P2;SDS_P1;SDS_P2;PMS_P1;PMS_P2;Temp;Humidity;BMP_temperature;BMP_pressure;BME280_temperature;BME280_humidity;BME280_pressure;Samples;Min_cycle;Max_cycle;Signal;HPM_P1;HPM_P2
2021/07/23 00:00:03;;;;;;;10.57;8.67;;;;;;;20.69;100.00;102045.52;1945626;72;39507;-77
2021/07/23 00:05:44;;;;;;;8.67;7.77;;;;;;;20.61;100.00;102038.42;1833824;77;85701;-81
2021/07/23 00:08:29;;;;;;;9.57;8.67;;;;;;;20.57;100.00;102042.47;1788654;79;933927;-73
2021/07/23 00:11:11;;;;;;;10.60;8.83;;;;;;;20.73;100.00;102045.12;1765441;79;936816;-80
2021/07/23 00:14:02;;;;;;;10.77;9.23;;;;;;;20.68;100.00;102044.42;1774404;80;937064;-80
2021/07/23 00:16:46;;;;;;;10.10;9.00;;;;;;;20.69;100.00;102041.29;1774327;79;938834;-73
2021/07/23 00:22:18;;;;;;;10.53;9.10;;;;;;;20.52;100.00;102023.42;1891487;75;85626;-79
2021/07/23 00:27:41;;;;;;;10.23;9.20;;;;;;;20.54;100.00;102023.95;1955603;72;39619;-80
2021/07/23 00:33:07;;;;;;;10.37;9.30;;;;;;;20.40;100.00;102021.20;1951789;72;39703;-79
2021/07/23 00:38:32;;;;;;;11.47;9.17;;;;;;;20.44;100.00;102029.28;1795624;78;86275;-80
2021/07/23 00:43:57;;;;;;;13.33;9.90;;;;;;;20.26;100.00;102017.59;1927236;72;39528;-75
2021/07/23 00:49:24;;;;;;;10.80;9.43;;;;;;;20.30;100.00;102028.52;1834517;77;86798;-80
2021/07/23 00:54:48;;;;;;;10.07;9.00;;;;;;;20.21;100.00;102023.36;1946069;72;39665;-73
2021/07/23 01:00:17;;;;;;;11.03;9.73;;;;;;;20.14;100.00;102018.19;1843206;76;86601;-76
2021/07/23 01:06:00;;;;;;;10.77;9.40;;;;;;;20.18;100.00;102004.27;1937830;72;39650;-80
2021/07/23 01:11:30;;;;;;;10.93;9.83;;;;;;;20.03;100.00;102006.89;1831973;75;86594;-79
2021/07/23 01:16:56;;;;;;;11.40;9.27;;;;;;;19.90;100.00;102008.63;1907305;73;39390;-74
2021/07/23 01:25:13;;;;;;;11.23;8.63;;;;;;;19.92;100.00;101999.84;1809725;79;86535;-80
2021/07/23 01:27:49;;;;;;;10.67;8.83;;;;;;;19.86;100.00;102004.78;1765420;80;934892;-73
2021/07/23 01:30:19;;;;;;;12.80;9.10;;;;;;;19.79;100.00;102000.17;1765351;79;938860;-80
2021/07/23 01:32:50;;;;;;;12.80;9.20;;;;;;;19.72;100.00;102007.41;1754068;79;937506;-80
2021/07/23 01:35:21;;;;;;;11.80;9.37;;;;;;;19.80;100.00;102009.47;1778445;79;938912;-81
2021/07/23 01:37:54;;;;;;;17.00;9.90;;;;;;;19.74;100.00;102010.73;1767050;79;938624;-74
2021/07/23 01:40:24;;;;;;;11.87;9.03;;;;;;;19.79;100.00;102014.84;1717914;81;938661;-80
2021/07/23 01:42:55;;;;;;;10.80;9.33;;;;;;;19.65;100.00;102016.30;1706489;81;937733;-81
2021/07/23 01:45:25;;;;;;;12.63;9.00;;;;;;;19.68;100.00;102017.66;1717862;81;938716;-80
2021/07/23 01:47:55;;;;;;;11.00;9.03;;;;;;;19.65;100.00;102013.47;1706587;81;938818;-73
2021/07/23 01:50:26;;;;;;;11.37;8.93;;;;;;;19.56;100.00;102012.55;1746925;81;938708;-73
2021/07/23 01:52:56;;;;;;;11.08;9.40;;;;;;;19.56;100.00;102012.55;1706510;82;938717;-81
2021/07/23 01:55:26;;;;;;;13.33;9.30;;;;;;;19.54;100.00;102013.47;1717866;81;938875;-73
2021/07/23 01:57:56;;;;;;;12.30;10.00;;;;;;;19.62;100.00;102016.10;1735330;80;938888;-80
2021/07/23 02:00:26;;;;;;;10.30;8.73;;;;;;;19.58;100.00;102012.25;1746670;80;940731;-81
2021/07/23 02:05:51;;;;;;;12.30;8.57;;;;;;;19.40;100.00;102010.64;1933141;72;39725;-81
2021/07/23 02:11:16;;;;;;;10.20;8.80;;;;;;;19.38;100.00;102008.70;1843175;76;86209;-74
2021/07/23 02:16:41;;;;;;;9.73;8.53;;;;;;;19.15;100.00;102018.26;1915400;72;39569;-81
2021/07/23 02:22:07;;;;;;;10.47;7.90;;;;;;;19.27;100.00;102011.50;1905241;73;39523;-80
2021/07/23 02:27:53;;;;;;;10.47;8.23;;;;;;;19.24;100.00;102012.72;1786520;78;86601;-84
2021/07/23 02:33:20;;;;;;;8.97;8.07;;;;;;;19.05;100.00;102009.45;1906017;74;86111;-84
2021/07/23 02:38:45;;;;;;;9.80;7.77;;;;;;;19.03;100.00;102003.88;1955366;72;39419;-78
2021/07/23 02:45:02;;;;;;;9.67;8.63;;;;;;;18.95;100.00;101992.78;1872537;75;86656;-83
2021/07/23 02:50:59;;;;;;;11.27;8.77;;;;;;;18.89;100.00;101984.17;1794008;78;85556;-76
2021/07/23 02:57:11;;;;;;;10.83;8.43;;;;;;;18.96;100.00;101980.92;1796005;78;86530;-83
2021/07/23 03:02:46;;;;;;;8.70;7.80;;;;;;;18.82;100.00;101966.88;1913241;72;40284;-77
2021/07/23 03:08:11;;;;;;;11.13;8.43;;;;;;;18.86;100.00;101965.09;1878145;76;87120;-73
2021/07/23 03:13:35;;;;;;;12.07;9.17;;;;;;;18.81;100.00;101967.18;1882800;73;86040;-76
2021/07/23 03:19:02;;;;;;;13.53;9.43;;;;;;;18.51;100.00;101963.81;1943763;72;39550;-83
2021/07/23 03:24:29;;;;;;;10.50;9.07;;;;;;;18.43;100.00;101971.58;1895582;75;86168;-82
2021/07/23 03:29:54;;;;;;;12.70;9.03;;;;;;;18.28;100.00;101963.41;1954720;72;39582;-82
2021/07/23 03:35:20;;;;;;;10.07;8.23;;;;;;;18.32;100.00;101956.02;1914990;73;86694;-85
2021/07/23 03:40:45;;;;;;;14.00;9.23;;;;;;;18.22;100.00;101953.98;1947306;73;39652;-82
2021/07/23 03:46:10;;;;;;;11.47;9.70;;;;;;;18.14;100.00;101956.34;1951760;72;39525;-76
2021/07/23 03:51:35;;;;;;;12.07;9.10;;;;;;;18.20;100.00;101951.47;1879292;74;86558;-76
2021/07/23 03:56:59;;;;;;;12.50;10.07;;;;;;;18.21;100.00;101954.55;1952950;72;39434;-82
2021/07/23 04:02:24;;;;;;;12.40;10.07;;;;;;;18.08;100.00;101950.57;1846729;73;86781;-76
2021/07/23 04:07:48;;;;;;;11.63;9.83;;;;;;;17.98;100.00;101946.52;1929424;72;39567;-82
2021/07/23 04:13:13;;;;;;;15.57;11.47;;;;;;;18.12;100.00;101953.59;1857289;75;86225;-76
2021/07/23 04:18:38;;;;;;;15.50;11.73;;;;;;;18.03;100.00;101956.28;1874445;75;85307;-77
2021/07/23 04:24:01;;;;;;;12.53;10.20;;;;;;;18.19;100.00;101947.82;1910557;73;39646;-83
2021/07/23 04:29:26;;;;;;;16.43;11.70;;;;;;;18.23;100.00;101939.59;1882046;75;86745;-83
2021/07/23 04:34:51;;;;;;;16.50;11.03;;;;;;;18.03;100.00;101930.97;1954016;72;39735;-76
2021/07/23 04:40:18;;;;;;;17.50;11.13;;;;;;;17.97;100.00;101933.60;1848537;76;86416;-83
2021/07/23 04:45:43;;;;;;;17.27;12.93;;;;;;;17.94;100.00;101936.20;1956931;72;39577;-83
2021/07/23 04:51:11;;;;;;;18.00;11.47;;;;;;;18.05;100.00;101932.92;1923351;72;40524;-82
2021/07/23 04:56:34;;;;;;;14.33;10.47;;;;;;;18.02;100.00;101936.89;1847942;75;86617;-76
2021/07/23 05:02:01;;;;;;;17.80;11.43;;;;;;;18.18;100.00;101936.90;1940983;72;39423;-83
2021/07/23 05:07:25;;;;;;;13.00;10.03;;;;;;;18.24;100.00;101937.05;1877898;73;86346;-81
2021/07/23 05:12:50;;;;;;;14.53;10.47;;;;;;;18.17;100.00;101931.00;1929368;72;39538;-73
2021/07/23 05:18:16;;;;;;;14.10;10.97;;;;;;;18.30;100.00;101930.76;1843172;76;86456;-82
2021/07/23 05:23:46;;;;;;;14.33;10.77;;;;;;;18.39;100.00;101924.11;1954817;72;40111;-76
2021/07/23 05:29:22;;;;;;;13.23;9.83;;;;;;;18.36;100.00;101912.62;1878602;76;86305;-82
2021/07/23 05:34:46;;;;;;;14.97;10.03;;;;;;;18.55;100.00;101920.43;1954379;72;40501;-81
2021/07/23 05:40:21;;;;;;;14.87;10.03;;;;;;;18.62;100.00;101920.84;1898208;74;86036;-84
2021/07/23 05:45:44;;;;;;;12.93;9.17;;;;;;;18.71;100.00;101910.52;1929072;73;39567;-75
2021/07/23 05:51:11;;;;;;;13.77;9.60;;;;;;;19.06;100.00;101906.08;1951649;72;39592;-72
2021/07/23 05:56:36;;;;;;;12.83;9.40;;;;;;;19.12;100.00;101903.41;1870514;75;86551;-76
2021/07/23 06:02:02;;;;;;;13.50;9.03;;;;;;;19.15;100.00;101892.91;1943591;72;39606;-77
2021/07/23 06:07:26;;;;;;;10.67;8.97;;;;;;;19.29;100.00;101892.87;1881835;73;85536;-78
2021/07/23 06:12:52;;;;;;;13.23;9.97;;;;;;;19.38;100.00;101886.73;1928839;72;39706;-75
2021/07/23 06:18:17;;;;;;;11.23;8.70;;;;;;;19.54;100.00;101883.24;1888344;75;86572;-75
2021/07/23 06:23:40;;;;;;;10.33;8.33;;;;;;;19.28;100.00;101880.77;1955576;72;40658;-78
2021/07/23 06:29:05;;;;;;;11.87;9.57;;;;;;;19.40;100.00;101876.80;1921795;72;39563;-77
2021/07/23 06:34:30;;;;;;;11.77;9.23;;;;;;;19.39;100.00;101879.92;1822657;77;86620;-71
2021/07/23 06:40:11;;;;;;;9.10;8.20;;;;;;;19.39;100.00;101882.16;1930135;72;39488;-74
2021/07/23 06:45:42;;;;;;;14.63;9.40;;;;;;;19.62;100.00;101881.63;1956606;72;39603;-72
2021/07/23 06:57:16;;;;;;;13.87;8.57;;;;;;;19.31;100.00;101899.84;1832151;76;85691;-70
2021/07/23 07:03:13;;;;;;;11.50;9.33;;;;;;;19.44;100.00;101891.10;1889232;76;86472;-75
2021/07/23 07:09:06;;;;;;;10.60;8.77;;;;;;;19.72;100.00;101887.02;1848638;76;86351;-71
2021/07/23 07:14:36;;;;;;;12.57;9.50;;;;;;;20.05;100.00;101881.05;1923825;72;42827;-71
2021/07/23 07:20:01;;;;;;;10.57;8.33;;;;;;;20.59;100.00;101879.22;1804541;75;86827;-74
2021/07/23 07:25:26;;;;;;;11.10;9.00;;;;;;;20.41;100.00;101883.97;1944062;72;39721;-68
2021/07/23 07:31:11;;;;;;;8.67;7.57;;;;;;;20.45;100.00;101885.59;1882988;74;86498;-72
2021/07/23 07:37:10;;;;;;;9.17;7.33;;;;;;;20.37;100.00;101873.66;1948681;72;39595;-75
2021/07/23 07:42:53;;;;;;;7.60;6.80;;;;;;;20.47;100.00;101870.55;1849314;76;86331;-74
2021/07/23 07:45:24;;;;;;;9.57;6.40;;;;;;;20.49;100.00;101866.84;1737956;79;934905;-74
2021/07/23 07:47:54;;;;;;;7.67;6.83;;;;;;;20.84;100.00;101868.55;1746405;79;935270;-71
2021/07/23 07:50:24;;;;;;;7.57;6.20;;;;;;;21.03;100.00;101857.53;1754061;78;935675;-70
2021/07/23 07:52:54;;;;;;;7.97;6.80;;;;;;;21.12;100.00;101854.14;1748574;80;934844;-71
2021/07/23 07:55:25;;;;;;;6.77;6.07;;;;;;;21.47;100.00;101847.91;1769566;78;936704;-71
2021/07/23 07:57:55;;;;;;;6.47;5.73;;;;;;;21.55;100.00;101852.14;1755427;79;934787;-71
2021/07/23 08:00:26;;;;;;;7.63;6.83;;;;;;;21.47;100.00;101855.81;1747062;79;936696;-70
2021/07/23 08:03:10;;;;;;;7.70;6.67;;;;;;;21.88;100.00;101858.62;1792450;78;934820;-72
2021/07/23 08:06:01;;;;;;;8.50;6.57;;;;;;;21.80;100.00;101849.00;1792361;78;936975;-71
2021/07/23 08:08:31;;;;;;;8.57;7.20;;;;;;;21.82;100.00;101842.44;1781677;77;936892;-71
2021/07/23 08:11:04;;;;;;;7.33;6.07;;;;;;;21.78;100.00;101832.94;1773308;79;934908;-72
2021/07/23 08:13:37;;;;;;;8.67;6.10;;;;;;;22.00;100.00;101838.97;1762354;79;936821;-73
2021/07/23 08:16:08;;;;;;;5.47;4.90;;;;;;;22.00;100.00;101837.56;1751634;79;936713;-71
2021/07/23 08:18:38;;;;;;;6.07;5.37;;;;;;;21.91;100.00;101831.91;1762407;79;936794;-71
2021/07/23 08:24:04;;;;;;;5.62;4.97;;;;;;;21.99;100.00;101825.41;1932554;73;39667;-70
2021/07/23 08:29:29;;;;;;;7.30;5.67;;;;;;;22.45;100.00;101817.46;1900287;73;39925;-70
2021/07/23 08:35:02;;;;;;;7.42;5.05;;;;;;;22.63;100.00;101814.74;1915275;72;39622;-70
2021/07/23 08:40:26;;;;;;;6.17;4.83;;;;;;;22.94;100.00;101807.88;1937535;72;39863;-73
2021/07/23 08:49:00;;;;;;;7.30;4.95;;;;;;;23.15;100.00;101795.94;1942840;73;86123;-69
2021/07/23 08:51:50;;;;;;;5.95;4.87;;;;;;;23.12;100.00;101791.81;1889861;74;934469;-69
2021/07/23 08:54:32;;;;;;;6.53;5.33;;;;;;;23.35;100.00;101788.02;1814365;74;937342;-71
2021/07/23 08:59:54;;;;;;;6.28;4.80;;;;;;;23.61;100.00;101783.52;1882633;73;86676;-69
2021/07/23 09:05:22;;;;;;;6.08;4.53;;;;;;;23.53;100.00;101775.31;1954600;73;39549;-72
2021/07/23 09:10:50;;;;;;;8.13;4.95;;;;;;;23.57;100.00;101775.47;1914486;73;86652;-69
2021/07/23 09:16:28;;;;;;;5.08;4.58;;;;;;;23.70;100.00;101770.64;1929447;72;39496;-69
2021/07/23 09:22:03;;;;;;;5.25;4.75;;;;;;;23.84;100.00;101766.27;1766710;79;86430;-69
2021/07/23 09:27:53;;;;;;;6.85;5.00;;;;;;;23.77;100.00;101756.70;1895573;75;86446;-69
2021/07/23 09:36:22;;;;;;;5.45;4.42;;;;;;;23.88;100.00;101752.20;1922483;72;39564;-70
2021/07/23 09:38:52;;;;;;;7.17;4.60;;;;;;;23.86;100.00;101758.84;1866607;76;934537;-69
2021/07/23 09:41:29;;;;;;;8.75;4.83;;;;;;;23.56;100.00;101750.52;1794733;77;936590;-70
2021/07/23 09:47:32;;;;;;;6.62;4.85;;;;;;;24.01;100.00;101736.83;1834091;76;86462;-71
2021/07/23 09:53:15;;;;;;;8.00;4.60;;;;;;;24.20;100.00;101731.44;1832767;75;86236;-71
2021/07/23 09:59:06;;;;;;;7.42;5.00;;;;;;;23.90;100.00;101729.98;1882759;75;86479;-69
2021/07/23 10:04:53;;;;;;;6.50;5.20;;;;;;;24.26;100.00;101726.34;1843927;77;86366;-70
2021/07/23 10:10:34;;;;;;;6.17;4.90;;;;;;;24.36;100.00;101719.56;1928181;72;39769;-72
2021/07/23 10:16:19;;;;;;;8.15;5.20;;;;;;;24.36;100.00;101705.95;1734212;81;86363;-69
2021/07/23 10:22:00;;;;;;;9.38;5.05;;;;;;;24.46;100.00;101690.69;1900335;75;85460;-72
2021/07/23 10:27:34;;;;;;;6.40;5.08;;;;;;;24.32;100.00;101672.36;1926906;72;39551;-72
2021/07/23 10:32:58;;;;;;;8.63;5.10;;;;;;;24.62;100.00;101665.17;1782819;79;85996;-72
2021/07/23 10:38:28;;;;;;;7.75;5.58;;;;;;;24.42;100.00;101652.83;1953523;72;39589;-69
2021/07/23 10:44:07;;;;;;;6.83;5.80;;;;;;;24.35;100.00;101634.13;1882632;75;86862;-70
2021/07/23 10:49:51;;;;;;;6.70;5.25;;;;;;;24.64;100.00;101628.72;1882634;73;86527;-74
2021/07/23 10:55:27;;;;;;;5.55;4.60;;;;;;;24.59;100.00;101614.77;1953892;72;39418;-71
2021/07/23 10:58:33;;;;;;;5.92;4.87;;;;;;;24.80;100.00;101608.85;1898862;73;934562;-74
2021/07/23 11:04:08;;;;;;;6.35;4.58;;;;;;;24.80;100.00;101611.11;1781421;79;85581;-70
2021/07/23 11:09:40;;;;;;;6.95;4.62;;;;;;;24.78;100.00;101611.22;1942855;72;39583;-70
2021/07/23 11:15:13;;;;;;;6.47;4.53;;;;;;;24.82;100.00;101605.87;1932613;73;39465;-70
2021/07/23 11:20:46;;;;;;;6.37;5.10;;;;;;;24.81;100.00;101598.56;1843822;76;86176;-73
2021/07/23 11:26:09;;;;;;;5.85;4.87;;;;;;;24.97;100.00;101608.55;1915928;72;39625;-73
2021/07/23 11:31:43;;;;;;;8.60;4.87;;;;;;;25.18;100.00;101611.97;1843871;76;86565;-73
2021/07/23 11:37:25;;;;;;;6.87;5.00;;;;;;;25.15;100.00;101601.92;1929442;72;39684;-73
2021/07/23 11:42:54;;;;;;;7.70;4.70;;;;;;;25.21;100.00;101610.39;1845536;75;85565;-73
2021/07/23 11:48:20;;;;;;;6.65;4.30;;;;;;;25.21;100.00;101587.05;1946310;72;39670;-73
2021/07/23 11:53:50;;;;;;;6.67;4.53;;;;;;;25.29;100.00;101563.88;1832691;76;86167;-73
2021/07/23 11:59:22;;;;;;;6.27;4.30;;;;;;;25.38;100.00;101562.50;1954416;72;39539;-73
2021/07/23 12:04:47;;;;;;;6.20;5.00;;;;;;;25.60;100.00;101570.16;1894995;74;85637;-70
2021/07/23 12:13:06;;;;;;;6.90;4.35;;;;;;;25.44;100.00;101567.32;1931331;72;39691;-69
2021/07/23 12:18:37;;;;;;;7.08;4.78;;;;;;;25.44;100.00;101565.07;1943118;72;39517;-69
2021/07/23 12:24:05;;;;;;;6.60;4.65;;;;;;;25.36;100.00;101563.48;1802708;75;85779;-73
2021/07/23 12:29:40;;;;;;;9.00;5.03;;;;;;;25.55;100.00;101547.09;1911980;72;39542;-73
2021/07/23 12:35:31;;;;;;;6.20;4.08;;;;;;;25.51;100.00;101529.08;1879452;73;39548;-73
2021/07/23 12:41:05;;;;;;;8.35;4.78;;;;;;;25.45;100.00;101519.80;1849880;75;85614;-74
2021/07/23 12:46:33;;;;;;;5.83;4.53;;;;;;;25.50;100.00;101504.66;1952839;72;73905;-76
2021/07/23 12:52:10;;;;;;;6.17;4.78;;;;;;;25.53;100.00;101496.00;1934209;73;39487;-70
2021/07/23 12:57:35;;;;;;;6.22;5.03;;;;;;;25.68;100.00;101488.03;1921581;73;39521;-73
2021/07/23 13:03:19;;;;;;;6.78;5.03;;;;;;;25.68;100.00;101462.42;1954597;72;39626;-70
2021/07/23 13:08:44;;;;;;;6.53;4.87;;;;;;;25.82;100.00;101465.58;1844268;76;86660;-70
2021/07/23 13:14:08;;;;;;;6.62;4.70;;;;;;;25.83;100.00;101469.48;1956746;72;39692;-73
2021/07/23 13:19:38;;;;;;;6.85;5.15;;;;;;;25.86;100.00;101463.63;1921647;73;39747;-69
2021/07/23 13:25:03;;;;;;;7.33;5.28;;;;;;;25.81;100.00;101447.67;1873993;75;86838;-73
2021/07/23 13:30:27;;;;;;;8.18;5.60;;;;;;;25.88;100.00;101447.61;1926586;72;39529;-69
2021/07/23 13:35:55;;;;;;;5.35;4.85;;;;;;;25.77;100.00;101438.83;1882740;75;86134;-73
2021/07/23 13:41:24;;;;;;;7.22;5.55;;;;;;;25.81;100.00;101430.59;1927921;72;39422;-73
2021/07/23 13:46:49;;;;;;;10.68;5.65;;;;;;;25.60;100.00;101425.88;1832605;76;86366;-69
2021/07/23 13:52:13;;;;;;;7.12;5.87;;;;;;;25.73;100.00;101427.98;1947745;72;39703;-69
2021/07/23 13:57:38;;;;;;;6.83;5.70;;;;;;;25.86;100.00;101419.52;1952275;72;40243;-72
2021/07/23 14:03:06;;;;;;;7.95;5.40;;;;;;;25.74;100.00;101413.38;1882878;75;85509;-70
2021/07/23 14:08:34;;;;;;;7.03;6.00;;;;;;;25.43;100.00;101422.01;1953136;73;39776;-72
2021/07/23 14:13:58;;;;;;;6.97;6.28;;;;;;;25.57;100.00;101415.84;1885148;73;86538;-70
2021/07/23 14:19:29;;;;;;;6.53;5.87;;;;;;;25.76;100.00;101407.30;1927091;72;39498;-73
2021/07/23 14:24:52;;;;;;;7.45;5.75;;;;;;;25.76;100.00;101406.70;1846643;76;86162;-70
2021/07/23 14:30:25;;;;;;;8.68;5.78;;;;;;;25.84;100.00;101394.89;1945523;72;39596;-70
2021/07/23 14:35:49;;;;;;;7.20;6.50;;;;;;;25.66;100.00;101397.95;1882670;75;86457;-72
2021/07/23 14:41:15;;;;;;;7.65;6.10;;;;;;;25.38;100.00;101387.56;1931143;73;39747;-71
2021/07/23 14:46:41;;;;;;;6.37;5.78;;;;;;;25.43;100.00;101382.78;1844009;76;86600;-73
2021/07/23 14:52:07;;;;;;;6.78;5.90;;;;;;;25.50;100.00;101377.27;1949540;72;39556;-71
2021/07/23 14:57:32;;;;;;;10.78;6.55;;;;;;;25.78;100.00;101366.48;1903678;73;39623;-70
2021/07/23 15:02:58;;;;;;;7.87;6.20;;;;;;;25.94;100.00;101378.59;1849565;76;85367;-73
2021/07/23 15:08:25;;;;;;;8.25;6.12;;;;;;;25.99;100.00;101376.05;1943125;73;39671;-73
2021/07/23 15:13:51;;;;;;;6.50;5.87;;;;;;;25.86;100.00;101371.12;1845975;76;87005;-70
2021/07/23 15:19:22;;;;;;;7.72;5.85;;;;;;;25.62;100.00;101373.70;1929159;72;39605;-73
2021/07/23 15:24:52;;;;;;;7.30;6.30;;;;;;;25.28;100.00;101367.44;1905907;75;86310;-70
2021/07/23 15:30:17;;;;;;;7.22;6.28;;;;;;;25.30;100.00;101376.41;1913271;73;40245;-71
2021/07/23 15:35:43;;;;;;;8.58;6.42;;;;;;;25.18;100.00;101372.28;1889263;75;86548;-70
2021/07/23 15:41:08;;;;;;;7.87;6.70;;;;;;;25.23;100.00;101381.36;1939352;72;39513;-67
2021/07/23 15:46:34;;;;;;;9.03;6.05;;;;;;;25.26;100.00;101374.91;1939837;72;39668;-72
2021/07/23 15:51:59;;;;;;;6.95;6.08;;;;;;;25.15;100.00;101368.17;1824059;77;86244;-69
2021/07/23 15:57:23;;;;;;;7.67;6.17;;;;;;;25.06;100.00;101362.46;1927828;73;40071;-70
2021/07/23 16:02:54;;;;;;;8.15;6.60;;;;;;;24.84;100.00;101375.31;1846063;76;86321;-74
2021/07/23 16:08:17;;;;;;;9.28;6.42;;;;;;;24.55;100.00;101364.45;1954661;72;39440;-73
2021/07/23 16:13:41;;;;;;;13.00;6.80;;;;;;;24.64;100.00;101353.72;1844172;76;86435;-71
2021/07/23 16:19:08;;;;;;;9.00;6.50;;;;;;;24.78;100.00;101344.92;1934640;72;39656;-73
2021/07/23 16:24:31;;;;;;;7.67;6.58;;;;;;;24.78;100.00;101335.58;1903845;73;39644;-72
2021/07/23 16:30:06;;;;;;;7.70;6.05;;;;;;;24.64;100.00;101330.99;1827917;78;86096;-71
2021/07/23 16:35:30;;;;;;;10.18;6.45;;;;;;;24.66;100.00;101329.42;1925264;72;39610;-76
2021/07/23 16:40:55;;;;;;;8.75;6.62;;;;;;;24.62;100.00;101317.14;1881774;74;86599;-72
2021/07/23 16:46:25;;;;;;;9.10;6.42;;;;;;;24.67;100.00;101326.81;1929276;72;39464;-73
2021/07/23 16:51:51;;;;;;;8.45;6.03;;;;;;;24.48;100.00;101316.20;1882657;73;86620;-73
2021/07/23 16:57:32;;;;;;;8.30;6.37;;;;;;;24.13;100.00;101309.61;1936119;72;39527;-73
2021/07/23 17:03:13;;;;;;;6.87;5.90;;;;;;;23.94;100.00;101306.66;1888128;74;86441;-73
2021/07/23 17:08:39;;;;;;;7.37;6.20;;;;;;;23.88;100.00;101298.17;1843917;77;86631;-72
2021/07/23 17:14:07;;;;;;;10.28;5.90;;;;;;;24.03;100.00;101293.11;1882844;74;85588;-74
2021/07/23 17:19:31;;;;;;;8.33;5.42;;;;;;;23.87;100.00;101288.03;1904306;73;39516;-75
2021/07/23 17:24:57;;;;;;;5.92;5.00;;;;;;;23.83;100.00;101277.19;1782768;79;86350;-71
2021/07/23 17:30:24;;;;;;;5.30;4.55;;;;;;;23.56;100.00;101281.71;1954240;72;39542;-78
2021/07/23 17:35:48;;;;;;;7.12;5.20;;;;;;;23.21;100.00;101275.81;1879323;73;86493;-72
2021/07/23 17:41:15;;;;;;;5.95;5.28;;;;;;;22.99;100.00;101267.27;1964503;72;39545;-79
2021/07/23 17:46:38;;;;;;;7.87;5.15;;;;;;;23.12;100.00;101254.70;1879355;76;86318;-72
2021/07/23 17:52:05;;;;;;;7.28;5.40;;;;;;;23.30;100.00;101249.55;1830805;77;86270;-73
2021/07/23 17:57:30;;;;;;;5.58;4.80;;;;;;;22.82;100.00;101250.56;1953407;72;39518;-75
2021/07/23 18:02:56;;;;;;;7.70;4.53;;;;;;;22.51;100.00;101254.00;1983538;72;86649;-73
2021/07/23 18:08:23;;;;;;;6.97;4.53;;;;;;;22.22;100.00;101250.03;1954131;72;39594;-75
2021/07/23 18:13:47;;;;;;;5.35;4.85;;;;;;;22.19;100.00;101243.09;1824892;77;85564;-74
2021/07/23 18:19:12;;;;;;;7.50;5.00;;;;;;;22.13;100.00;101227.52;1937973;72;39579;-77
2021/07/23 18:24:35;;;;;;;7.22;5.35;;;;;;;22.29;100.00;101217.73;1952652;73;39718;-72
2021/07/23 18:30:04;;;;;;;6.20;4.67;;;;;;;22.04;100.00;101217.48;1882889;75;86392;-75
2021/07/23 18:35:36;;;;;;;8.08;5.25;;;;;;;22.45;100.00;101208.73;1940589;72;39605;-76
2021/07/23 18:41:01;;;;;;;6.95;4.30;;;;;;;21.72;100.00;101214.97;1848630;76;86489;-77
2021/07/23 18:46:25;;;;;;;8.30;4.27;;;;;;;21.58;100.00;101204.58;1926056;72;39571;-74
2021/07/23 18:51:50;;;;;;;7.70;4.03;;;;;;;21.38;100.00;101191.36;1882809;75;85617;-76
2021/07/23 18:57:15;;;;;;;5.28;4.33;;;;;;;21.45;100.00;101174.05;1955159;72;39524;-75
2021/07/23 19:02:40;;;;;;;7.12;4.15;;;;;;;21.14;100.00;101151.96;1843839;76;86635;-73
2021/07/23 19:08:08;;;;;;;5.85;3.80;;;;;;;21.06;100.00;101150.03;1935145;73;39820;-75
2021/07/23 19:13:33;;;;;;;5.27;4.20;;;;;;;21.17;100.00;101145.64;1953005;72;39582;-71
2021/07/23 19:18:58;;;;;;;6.43;4.10;;;;;;;20.89;100.00;101148.80;1823954;78;86799;-72
2021/07/23 19:24:22;;;;;;;4.97;4.20;;;;;;;20.86;100.00;101153.16;1928554;72;39447;-75
2021/07/23 19:29:45;;;;;;;5.17;4.03;;;;;;;20.81;100.00;101161.83;1843840;76;86339;-75
2021/07/23 19:35:10;;;;;;;4.63;4.13;;;;;;;20.65;100.00;101160.83;1933890;72;39431;-75
2021/07/23 19:40:54;;;;;;;5.10;4.60;;;;;;;20.67;100.00;101185.87;1855283;75;86753;-75
2021/07/23 19:46:19;;;;;;;6.17;4.40;;;;;;;20.57;100.00;101197.02;1946346;72;39599;-72
2021/07/23 19:51:43;;;;;;;5.23;4.20;;;;;;;20.40;100.00;101216.31;1844003;76;85317;-74
2021/07/23 19:57:08;;;;;;;8.90;4.67;;;;;;;20.51;100.00;101220.13;1948731;73;39743;-73
2021/07/23 20:02:38;;;;;;;4.67;3.60;;;;;;;20.37;100.00;101214.16;1843824;77;86655;-72
2021/07/23 20:08:05;;;;;;;5.23;4.27;;;;;;;20.32;100.00;101231.28;1875112;75;86389;-77
2021/07/23 20:13:31;;;;;;;5.90;4.40;;;;;;;20.39;100.00;101240.05;1953618;72;39809;-78
2021/07/23 20:18:55;;;;;;;4.27;3.87;;;;;;;20.28;100.00;101270.39;1782873;79;86727;-72
2021/07/23 20:24:18;;;;;;;4.20;3.80;;;;;;;20.76;100.00;101283.45;1910620;72;39824;-72
2021/07/23 20:29:43;;;;;;;4.90;3.70;;;;;;;20.30;100.00;101289.23;1859001;75;86166;-73
2021/07/23 20:35:12;;;;;;;5.63;4.13;;;;;;;20.18;100.00;101287.11;1956848;72;39536;-72
2021/07/23 20:40:37;;;;;;;6.53;4.13;;;;;;;20.06;100.00;101281.37;1921033;72;39640;-72
2021/07/23 20:46:01;;;;;;;4.87;4.23;;;;;;;20.11;100.00;101298.08;1877854;73;86517;-71
2021/07/23 20:51:26;;;;;;;5.27;4.30;;;;;;;20.21;100.00;101304.76;1945307;72;39805;-76
2021/07/23 20:56:52;;;;;;;7.93;5.20;;;;;;;20.13;100.00;101309.86;1832426;76;86453;-73
2021/07/23 21:02:16;;;;;;;9.70;5.30;;;;;;;20.23;100.00;101310.07;1953159;72;40288;-76
2021/07/23 21:07:41;;;;;;;6.60;5.47;;;;;;;20.17;100.00;101322.70;1843812;76;86665;-72
2021/07/23 21:13:08;;;;;;;8.57;5.90;;;;;;;20.20;100.00;101327.66;1956430;73;39496;-75
2021/07/23 21:18:35;;;;;;;8.03;6.47;;;;;;;20.23;100.00;101308.08;1927526;72;39558;-77
2021/07/23 21:23:58;;;;;;;8.40;7.10;;;;;;;20.19;100.00;101302.88;1782939;78;85568;-76
2021/07/23 21:29:23;;;;;;;9.13;8.13;;;;;;;20.13;100.00;101301.40;1954207;72;39546;-77
2021/07/23 21:34:47;;;;;;;10.63;8.80;;;;;;;20.00;100.00;101268.03;1884413;74;86514;-72
2021/07/23 21:40:15;;;;;;;10.63;8.70;;;;;;;19.93;100.00;101263.51;1956379;72;39733;-71
2021/07/23 21:48:30;;;;;;;13.30;8.63;;;;;;;20.03;100.00;101255.23;1918679;72;39621;-77
2021/07/23 21:51:03;;;;;;;11.27;9.07;;;;;;;19.88;100.00;101269.91;1867835;75;934851;-77
2021/07/23 21:53:34;;;;;;;13.33;9.10;;;;;;;19.81;100.00;101272.43;1857466;75;938614;-77
2021/07/23 21:56:06;;;;;;;11.67;9.17;;;;;;;19.83;100.00;101266.69;1869815;75;936801;-76
2021/07/23 21:58:36;;;;;;;10.30;9.07;;;;;;;19.84;100.00;101259.89;1857280;75;938744;-77
2021/07/23 22:01:08;;;;;;;10.23;9.13;;;;;;;19.85;100.00;101262.93;1869577;75;936780;-75
2021/07/23 22:03:41;;;;;;;10.50;8.40;;;;;;;19.80;100.00;101274.42;1869580;75;938769;-72
2021/07/23 22:06:15;;;;;;;8.73;7.90;;;;;;;19.79;100.00;101263.47;1869524;75;936822;-73
2021/07/23 22:08:45;;;;;;;8.87;7.93;;;;;;;19.81;100.00;101266.80;1869546;75;936579;-74
2021/07/23 22:11:15;;;;;;;8.97;7.67;;;;;;;19.94;100.00;101264.30;1857342;75;936507;-73
2021/07/23 22:13:45;;;;;;;9.63;7.97;;;;;;;19.75;100.00;101277.99;1869575;75;935615;-75
2021/07/23 22:16:16;;;;;;;9.30;8.27;;;;;;;19.72;100.00;101281.50;1857480;75;936774;-72
2021/07/23 22:18:47;;;;;;;10.07;8.13;;;;;;;19.64;100.00;101269.67;1869548;75;936917;-75
2021/07/23 22:24:12;;;;;;;8.30;7.33;;;;;;;19.59;100.00;101265.03;1956591;72;39710;-73
2021/07/23 22:29:40;;;;;;;8.83;7.20;;;;;;;19.50;100.00;101285.36;1900602;73;39805;-75
2021/07/23 22:35:06;;;;;;;8.27;7.47;;;;;;;19.31;100.00;101280.05;1875530;75;85483;-72
2021/07/23 22:40:33;;;;;;;8.80;6.63;;;;;;;19.44;100.00;101257.94;1938306;72;39459;-75
2021/07/23 22:45:58;;;;;;;8.23;6.97;;;;;;;19.46;100.00;101268.30;1860358;75;86183;-72
2021/07/23 22:51:23;;;;;;;7.17;6.27;;;;;;;19.39;100.00;101256.66;1927261;73;39527;-73
2021/07/23 22:56:48;;;;;;;8.10;6.23;;;;;;;19.29;100.00;101240.13;1808706;78;86424;-75